sensor_id;sensor_type;location;lat;lon;timestamp;P1;durP1;ratioP1;P2;durP2;ratioP2
1569;SDS011;778;50.120;8.698;2023-02-07T00:01:40;3.50;;;3.20;;
1569;SDS011;778;50.120;8.698;2023-02-07T00:04:10;2.60;;;2.40;;
1569;SDS011;778;50.120;8.698;2023-02-07T00:06:38;3.23;;;3.03;;
1569;SDS011;778;50.120;8.698;2023-02-07T00:09:07;3.13;;;2.80;;
1569;SDS011;778;50.120;8.698;2023-02-07T00:11:37;3.40;;;2.93;;
1569;SDS011;778;50.120;8.698;2023-02-07T00:14:07;2.87;;;2.67;;
1569;SDS011;778;50.120;8.698;2023-02-07T00:16:38;3.07;;;2.77;;
1569;SDS011;778;50.120;8.698;2023-02-07T00:19:07;3.23;;;2.90;;
1569;SDS011;778;50.120;8.698;2023-02-07T00:21:37;2.70;;;2.50;;
1569;SDS011;778;50.120;8.698;2023-02-07T00:24:06;3.20;;;2.87;;
1569;SDS011;778;50.120;8.698;2023-02-07T00:26:34;2.87;;;2.67;;
1569;SDS011;778;50.120;8.698;2023-02-07T00:29:03;3.23;;;2.93;;
1569;SDS011;778;50.120;8.698;2023-02-07T00:31:33;3.67;;;2.67;;
1569;SDS011;778;50.120;8.698;2023-02-07T00:34:03;2.50;;;2.30;;
1569;SDS011;778;50.120;8.698;2023-02-07T00:36:34;2.87;;;2.53;;
1569;SDS011;778;50.120;8.698;2023-02-07T00:39:06;3.13;;;2.83;;
1569;SDS011;778;50.120;8.698;2023-02-07T00:41:38;2.67;;;2.47;;
1569;SDS011;778;50.120;8.698;2023-02-07T00:44:07;2.80;;;2.60;;
1569;SDS011;778;50.120;8.698;2023-02-07T00:46:37;2.90;;;2.57;;
1569;SDS011;778;50.120;8.698;2023-02-07T00:49:05;2.43;;;2.23;;
1569;SDS011;778;50.120;8.698;2023-02-07T00:51:34;2.60;;;2.40;;
1569;SDS011;778;50.120;8.698;2023-02-07T00:54:04;2.20;;;2.10;;
1569;SDS011;778;50.120;8.698;2023-02-07T00:56:34;2.30;;;2.10;;
1569;SDS011;778;50.120;8.698;2023-02-07T00:59:02;2.63;;;2.43;;
1569;SDS011;778;50.120;8.698;2023-02-07T01:01:31;2.80;;;2.40;;
1569;SDS011;778;50.120;8.698;2023-02-07T01:03:59;2.90;;;2.70;;
1569;SDS011;778;50.120;8.698;2023-02-07T01:06:28;2.70;;;2.50;;
1569;SDS011;778;50.120;8.698;2023-02-07T01:09:01;3.20;;;2.07;;
1569;SDS011;778;50.120;8.698;2023-02-07T01:11:32;3.17;;;2.30;;
1569;SDS011;778;50.120;8.698;2023-02-07T01:14:01;2.40;;;2.20;;
1569;SDS011;778;50.120;8.698;2023-02-07T01:16:30;3.27;;;2.97;;
1569;SDS011;778;50.120;8.698;2023-02-07T01:19:02;2.83;;;2.63;;
1569;SDS011;778;50.120;8.698;2023-02-07T01:21:32;2.60;;;2.40;;
1569;SDS011;778;50.120;8.698;2023-02-07T01:24:05;2.50;;;2.40;;
1569;SDS011;778;50.120;8.698;2023-02-07T01:26:34;3.47;;;2.60;;
1569;SDS011;778;50.120;8.698;2023-02-07T01:29:04;2.57;;;2.23;;
1569;SDS011;778;50.120;8.698;2023-02-07T01:31:33;2.13;;;2.03;;
1569;SDS011;778;50.120;8.698;2023-02-07T01:34:02;3.20;;;2.90;;
1569;SDS011;778;50.120;8.698;2023-02-07T01:36:31;2.90;;;2.63;;
1569;SDS011;778;50.120;8.698;2023-02-07T01:38:59;2.77;;;2.57;;
1569;SDS011;778;50.120;8.698;2023-02-07T01:41:33;2.10;;;2.00;;
1569;SDS011;778;50.120;8.698;2023-02-07T01:44:04;2.43;;;2.23;;
1569;SDS011;778;50.120;8.698;2023-02-07T01:46:35;2.37;;;2.27;;
1569;SDS011;778;50.120;8.698;2023-02-07T01:49:04;2.63;;;2.43;;
1569;SDS011;778;50.120;8.698;2023-02-07T01:51:35;2.63;;;2.43;;
1569;SDS011;778;50.120;8.698;2023-02-07T01:54:09;3.17;;;2.87;;
1569;SDS011;778;50.120;8.698;2023-02-07T01:56:51;3.10;;;2.63;;
1569;SDS011;778;50.120;8.698;2023-02-07T01:59:23;3.10;;;2.80;;
1569;SDS011;778;50.120;8.698;2023-02-07T02:01:53;3.60;;;3.30;;
1569;SDS011;778;50.120;8.698;2023-02-07T02:04:23;2.90;;;2.70;;
1569;SDS011;778;50.120;8.698;2023-02-07T02:06:52;2.80;;;2.60;;
1569;SDS011;778;50.120;8.698;2023-02-07T02:09:21;3.63;;;3.30;;
1569;SDS011;778;50.120;8.698;2023-02-07T02:12:05;2.80;;;2.60;;
1569;SDS011;778;50.120;8.698;2023-02-07T02:15:00;3.90;;;2.73;;
1569;SDS011;778;50.120;8.698;2023-02-07T02:17:43;3.50;;;3.20;;
1569;SDS011;778;50.120;8.698;2023-02-07T02:24:20;3.47;;;3.17;;
1569;SDS011;778;50.120;8.698;2023-02-07T02:27:33;3.60;;;3.30;;
1569;SDS011;778;50.120;8.698;2023-02-07T02:30:35;3.50;;;3.20;;
1569;SDS011;778;50.120;8.698;2023-02-07T02:33:29;3.43;;;3.13;;
1569;SDS011;778;50.120;8.698;2023-02-07T02:36:15;3.83;;;3.53;;
1569;SDS011;778;50.120;8.698;2023-02-07T02:38:56;3.90;;;3.60;;
1569;SDS011;778;50.120;8.698;2023-02-07T02:41:36;4.23;;;3.83;;
1569;SDS011;778;50.120;8.698;2023-02-07T02:44:10;3.30;;;3.00;;
1569;SDS011;778;50.120;8.698;2023-02-07T02:46:43;3.73;;;3.43;;
1569;SDS011;778;50.120;8.698;2023-02-07T02:49:15;3.83;;;3.53;;
1569;SDS011;778;50.120;8.698;2023-02-07T02:51:48;3.87;;;3.57;;
1569;SDS011;778;50.120;8.698;2023-02-07T02:54:28;4.10;;;3.70;;
1569;SDS011;778;50.120;8.698;2023-02-07T02:57:14;7.00;;;4.10;;
1569;SDS011;778;50.120;8.698;2023-02-07T03:00:08;4.23;;;3.83;;
1569;SDS011;778;50.120;8.698;2023-02-07T03:02:57;4.67;;;4.20;;
1569;SDS011;778;50.120;8.698;2023-02-07T03:05:52;5.83;;;4.47;;
1569;SDS011;778;50.120;8.698;2023-02-07T03:08:35;4.77;;;4.37;;
1569;SDS011;778;50.120;8.698;2023-02-07T03:11:12;5.20;;;4.50;;
1569;SDS011;778;50.120;8.698;2023-02-07T03:13:47;5.90;;;4.70;;
1569;SDS011;778;50.120;8.698;2023-02-07T03:16:27;5.80;;;5.10;;
1569;SDS011;778;50.120;8.698;2023-02-07T03:19:03;5.47;;;4.53;;
1569;SDS011;778;50.120;8.698;2023-02-07T03:21:38;6.57;;;4.93;;
1569;SDS011;778;50.120;8.698;2023-02-07T03:24:13;7.43;;;4.90;;
1569;SDS011;778;50.120;8.698;2023-02-07T03:26:45;6.10;;;5.50;;
1569;SDS011;778;50.120;8.698;2023-02-07T03:29:18;5.97;;;5.37;;
1569;SDS011;778;50.120;8.698;2023-02-07T03:31:49;5.53;;;4.90;;
1569;SDS011;778;50.120;8.698;2023-02-07T03:34:23;6.07;;;4.83;;
1569;SDS011;778;50.120;8.698;2023-02-07T03:37:02;6.30;;;5.27;;
1569;SDS011;778;50.120;8.698;2023-02-07T03:39:36;6.07;;;5.47;;
1569;SDS011;778;50.120;8.698;2023-02-07T03:42:06;6.10;;;5.50;;
1569;SDS011;778;50.120;8.698;2023-02-07T03:44:41;6.67;;;5.70;;
1569;SDS011;778;50.120;8.698;2023-02-07T03:47:11;6.73;;;5.47;;
1569;SDS011;778;50.120;8.698;2023-02-07T03:49:43;5.80;;;5.30;;
1569;SDS011;778;50.120;8.698;2023-02-07T03:52:13;5.30;;;4.80;;
1569;SDS011;778;50.120;8.698;2023-02-07T03:54:42;6.43;;;5.80;;
1569;SDS011;778;50.120;8.698;2023-02-07T03:57:11;8.83;;;6.83;;
1569;SDS011;778;50.120;8.698;2023-02-07T03:59:40;5.97;;;5.27;;
1569;SDS011;778;50.120;8.698;2023-02-07T04:02:08;6.73;;;6.10;;
1569;SDS011;778;50.120;8.698;2023-02-07T04:04:37;7.87;;;6.73;;
1569;SDS011;778;50.120;8.698;2023-02-07T04:07:05;6.90;;;5.80;;
1569;SDS011;778;50.120;8.698;2023-02-07T04:09:35;6.83;;;5.97;;
1569;SDS011;778;50.120;8.698;2023-02-07T04:12:04;7.80;;;6.57;;
1569;SDS011;778;50.120;8.698;2023-02-07T04:14:32;7.20;;;6.30;;
1569;SDS011;778;50.120;8.698;2023-02-07T04:17:01;7.50;;;5.60;;
1569;SDS011;778;50.120;8.698;2023-02-07T04:19:30;7.90;;;6.53;;
1569;SDS011;778;50.120;8.698;2023-02-07T04:21:58;8.70;;;6.83;;
1569;SDS011;778;50.120;8.698;2023-02-07T04:24:27;7.90;;;6.90;;
1569;SDS011;778;50.120;8.698;2023-02-07T04:26:58;6.67;;;5.97;;
1569;SDS011;778;50.120;8.698;2023-02-07T04:29:27;7.90;;;7.10;;
1569;SDS011;778;50.120;8.698;2023-02-07T04:31:55;9.23;;;6.20;;
1569;SDS011;778;50.120;8.698;2023-02-07T04:34:24;10.00;;;7.27;;
1569;SDS011;778;50.120;8.698;2023-02-07T04:36:53;8.60;;;7.07;;
1569;SDS011;778;50.120;8.698;2023-02-07T04:39:22;8.57;;;7.37;;
1569;SDS011;778;50.120;8.698;2023-02-07T04:41:50;9.40;;;6.93;;
1569;SDS011;778;50.120;8.698;2023-02-07T04:44:20;10.93;;;7.40;;
1569;SDS011;778;50.120;8.698;2023-02-07T04:46:49;12.47;;;8.10;;
1569;SDS011;778;50.120;8.698;2023-02-07T04:49:17;8.70;;;7.53;;
1569;SDS011;778;50.120;8.698;2023-02-07T04:51:46;10.03;;;7.53;;
1569;SDS011;778;50.120;8.698;2023-02-07T04:54:15;9.07;;;7.87;;
1569;SDS011;778;50.120;8.698;2023-02-07T04:56:43;10.93;;;8.33;;
1569;SDS011;778;50.120;8.698;2023-02-07T04:59:12;9.13;;;7.17;;
1569;SDS011;778;50.120;8.698;2023-02-07T05:01:41;8.40;;;7.00;;
1569;SDS011;778;50.120;8.698;2023-02-07T05:04:10;8.53;;;7.73;;
1569;SDS011;778;50.120;8.698;2023-02-07T05:06:38;10.80;;;8.60;;
1569;SDS011;778;50.120;8.698;2023-02-07T05:09:07;9.37;;;7.90;;
1569;SDS011;778;50.120;8.698;2023-02-07T05:11:35;9.97;;;8.03;;
1569;SDS011;778;50.120;8.698;2023-02-07T05:14:04;8.10;;;7.40;;
1569;SDS011;778;50.120;8.698;2023-02-07T05:16:32;8.77;;;7.47;;
1569;SDS011;778;50.120;8.698;2023-02-07T05:19:02;10.70;;;8.37;;
1569;SDS011;778;50.120;8.698;2023-02-07T05:21:31;9.00;;;8.10;;
1569;SDS011;778;50.120;8.698;2023-02-07T05:23:59;9.20;;;8.07;;
1569;SDS011;778;50.120;8.698;2023-02-07T05:26:28;9.30;;;7.90;;
1569;SDS011;778;50.120;8.698;2023-02-07T05:28:56;9.83;;;7.60;;
1569;SDS011;778;50.120;8.698;2023-02-07T05:31:25;10.10;;;7.37;;
1569;SDS011;778;50.120;8.698;2023-02-07T05:34:09;10.93;;;7.20;;
1569;SDS011;778;50.120;8.698;2023-02-07T05:36:37;10.83;;;8.60;;
1569;SDS011;778;50.120;8.698;2023-02-07T05:39:06;10.37;;;8.23;;
1569;SDS011;778;50.120;8.698;2023-02-07T05:41:34;8.90;;;8.00;;
1569;SDS011;778;50.120;8.698;2023-02-07T05:44:03;9.10;;;8.20;;
1569;SDS011;778;50.120;8.698;2023-02-07T05:46:32;11.47;;;8.93;;
1569;SDS011;778;50.120;8.698;2023-02-07T05:49:00;11.23;;;9.30;;
1569;SDS011;778;50.120;8.698;2023-02-07T05:51:31;11.20;;;8.87;;
1569;SDS011;778;50.120;8.698;2023-02-07T05:53:59;8.87;;;6.93;;
1569;SDS011;778;50.120;8.698;2023-02-07T05:56:28;11.20;;;9.00;;
1569;SDS011;778;50.120;8.698;2023-02-07T05:58:56;11.47;;;8.57;;
1569;SDS011;778;50.120;8.698;2023-02-07T06:01:25;9.73;;;8.20;;
1569;SDS011;778;50.120;8.698;2023-02-07T06:03:54;10.83;;;8.67;;
1569;SDS011;778;50.120;8.698;2023-02-07T06:06:22;10.63;;;9.50;;
1569;SDS011;778;50.120;8.698;2023-02-07T06:08:52;11.23;;;9.33;;
1569;SDS011;778;50.120;8.698;2023-02-07T06:11:21;10.90;;;8.27;;
1569;SDS011;778;50.120;8.698;2023-02-07T06:13:49;11.00;;;9.27;;
1569;SDS011;778;50.120;8.698;2023-02-07T06:16:17;11.73;;;9.00;;
1569;SDS011;778;50.120;8.698;2023-02-07T06:18:46;12.77;;;9.83;;
1569;SDS011;778;50.120;8.698;2023-02-07T06:21:14;11.17;;;9.63;;
1569;SDS011;778;50.120;8.698;2023-02-07T06:23:43;13.30;;;10.17;;
1569;SDS011;778;50.120;8.698;2023-02-07T06:26:16;12.47;;;10.50;;
1569;SDS011;778;50.120;8.698;2023-02-07T06:28:44;12.83;;;9.90;;
1569;SDS011;778;50.120;8.698;2023-02-07T06:31:13;11.20;;;9.50;;
1569;SDS011;778;50.120;8.698;2023-02-07T06:33:42;13.73;;;9.70;;
1569;SDS011;778;50.120;8.698;2023-02-07T06:36:10;11.57;;;9.77;;
1569;SDS011;778;50.120;8.698;2023-02-07T06:38:39;11.97;;;8.60;;
1569;SDS011;778;50.120;8.698;2023-02-07T06:41:07;14.53;;;11.67;;
1569;SDS011;778;50.120;8.698;2023-02-07T06:43:38;12.43;;;9.73;;
1569;SDS011;778;50.120;8.698;2023-02-07T06:46:07;15.50;;;11.10;;
1569;SDS011;778;50.120;8.698;2023-02-07T06:48:35;14.40;;;10.90;;
1569;SDS011;778;50.120;8.698;2023-02-07T06:51:04;19.17;;;12.20;;
1569;SDS011;778;50.120;8.698;2023-02-07T06:53:33;14.00;;;11.53;;
1569;SDS011;778;50.120;8.698;2023-02-07T06:56:01;14.47;;;11.67;;
1569;SDS011;778;50.120;8.698;2023-02-07T06:58:30;16.77;;;12.27;;
1569;SDS011;778;50.120;8.698;2023-02-07T07:01:01;13.30;;;10.13;;
1569;SDS011;778;50.120;8.698;2023-02-07T07:03:31;15.53;;;11.30;;
1569;SDS011;778;50.120;8.698;2023-02-07T07:05:59;15.50;;;11.10;;
1569;SDS011;778;50.120;8.698;2023-02-07T07:08:28;18.00;;;11.30;;
1569;SDS011;778;50.120;8.698;2023-02-07T07:10:56;19.60;;;11.80;;
1569;SDS011;778;50.120;8.698;2023-02-07T07:13:25;15.50;;;12.23;;
1569;SDS011;778;50.120;8.698;2023-02-07T07:15:53;16.37;;;11.97;;
1569;SDS011;778;50.120;8.698;2023-02-07T07:18:23;19.17;;;13.40;;
1569;SDS011;778;50.120;8.698;2023-02-07T07:20:52;20.23;;;14.03;;
1569;SDS011;778;50.120;8.698;2023-02-07T07:23:20;16.43;;;12.73;;
1569;SDS011;778;50.120;8.698;2023-02-07T07:25:49;14.30;;;11.00;;
1569;SDS011;778;50.120;8.698;2023-02-07T07:28:18;15.70;;;12.30;;
1569;SDS011;778;50.120;8.698;2023-02-07T07:30:47;17.80;;;11.47;;
1569;SDS011;778;50.120;8.698;2023-02-07T07:33:15;14.03;;;11.27;;
1569;SDS011;778;50.120;8.698;2023-02-07T07:35:45;14.60;;;11.90;;
1569;SDS011;778;50.120;8.698;2023-02-07T07:38:13;13.27;;;10.57;;
1569;SDS011;778;50.120;8.698;2023-02-07T07:40:42;16.73;;;12.33;;
1569;SDS011;778;50.120;8.698;2023-02-07T07:43:10;15.93;;;11.63;;
1569;SDS011;778;50.120;8.698;2023-02-07T07:45:44;14.17;;;11.50;;
1569;SDS011;778;50.120;8.698;2023-02-07T07:48:16;16.87;;;12.33;;
1569;SDS011;778;50.120;8.698;2023-02-07T07:50:46;14.20;;;10.90;;
1569;SDS011;778;50.120;8.698;2023-02-07T07:53:15;21.03;;;13.13;;
1569;SDS011;778;50.120;8.698;2023-02-07T07:55:47;21.07;;;13.30;;
1569;SDS011;778;50.120;8.698;2023-02-07T07:58:17;18.47;;;12.70;;
1569;SDS011;778;50.120;8.698;2023-02-07T08:00:46;13.17;;;10.50;;
1569;SDS011;778;50.120;8.698;2023-02-07T08:03:15;17.20;;;11.60;;
1569;SDS011;778;50.120;8.698;2023-02-07T08:05:47;16.60;;;11.60;;
1569;SDS011;778;50.120;8.698;2023-02-07T08:08:16;16.33;;;11.93;;
1569;SDS011;778;50.120;8.698;2023-02-07T08:10:46;18.30;;;12.37;;
1569;SDS011;778;50.120;8.698;2023-02-07T08:13:15;13.30;;;10.13;;
1569;SDS011;778;50.120;8.698;2023-02-07T08:15:46;14.47;;;11.33;;
1569;SDS011;778;50.120;8.698;2023-02-07T08:18:15;19.50;;;11.63;;
1569;SDS011;778;50.120;8.698;2023-02-07T08:20:44;21.80;;;12.63;;
1569;SDS011;778;50.120;8.698;2023-02-07T08:23:13;24.93;;;13.97;;
1569;SDS011;778;50.120;8.698;2023-02-07T08:25:42;20.20;;;13.37;;
1569;SDS011;778;50.120;8.698;2023-02-07T08:28:12;15.87;;;10.47;;
1569;SDS011;778;50.120;8.698;2023-02-07T08:30:40;16.30;;;12.07;;
1569;SDS011;778;50.120;8.698;2023-02-07T08:33:11;15.97;;;11.73;;
1569;SDS011;778;50.120;8.698;2023-02-07T08:35:40;14.20;;;10.30;;
1569;SDS011;778;50.120;8.698;2023-02-07T08:38:08;16.00;;;10.93;;
1569;SDS011;778;50.120;8.698;2023-02-07T08:40:38;16.03;;;12.63;;
1569;SDS011;778;50.120;8.698;2023-02-07T08:43:07;13.87;;;10.70;;
1569;SDS011;778;50.120;8.698;2023-02-07T08:45:37;14.13;;;11.33;;
1569;SDS011;778;50.120;8.698;2023-02-07T08:48:07;15.17;;;11.10;;
1569;SDS011;778;50.120;8.698;2023-02-07T08:50:35;12.47;;;11.00;;
1569;SDS011;778;50.120;8.698;2023-02-07T08:53:04;14.03;;;10.50;;
1569;SDS011;778;50.120;8.698;2023-02-07T08:55:33;12.10;;;9.60;;
1569;SDS011;778;50.120;8.698;2023-02-07T08:58:03;14.07;;;10.63;;
1569;SDS011;778;50.120;8.698;2023-02-07T09:00:31;12.47;;;9.80;;
1569;SDS011;778;50.120;8.698;2023-02-07T09:03:00;14.80;;;10.60;;
1569;SDS011;778;50.120;8.698;2023-02-07T09:05:30;13.17;;;10.97;;
1569;SDS011;778;50.120;8.698;2023-02-07T09:07:59;13.70;;;10.47;;
1569;SDS011;778;50.120;8.698;2023-02-07T09:10:28;12.20;;;10.57;;
1569;SDS011;778;50.120;8.698;2023-02-07T09:12:56;44.70;;;14.50;;
1569;SDS011;778;50.120;8.698;2023-02-07T09:15:26;11.83;;;10.60;;
1569;SDS011;778;50.120;8.698;2023-02-07T09:17:54;13.60;;;10.47;;
1569;SDS011;778;50.120;8.698;2023-02-07T09:20:23;12.40;;;10.80;;
1569;SDS011;778;50.120;8.698;2023-02-07T09:22:52;18.90;;;11.67;;
1569;SDS011;778;50.120;8.698;2023-02-07T09:25:38;13.93;;;10.70;;
1569;SDS011;778;50.120;8.698;2023-02-07T09:28:08;14.53;;;11.10;;
1569;SDS011;778;50.120;8.698;2023-02-07T09:33:10;18.17;;;10.07;;
1569;SDS011;778;50.120;8.698;2023-02-07T09:35:41;14.63;;;11.10;;
1569;SDS011;778;50.120;8.698;2023-02-07T09:38:12;15.47;;;10.73;;
1569;SDS011;778;50.120;8.698;2023-02-07T09:40:43;12.53;;;10.67;;
1569;SDS011;778;50.120;8.698;2023-02-07T09:43:17;11.40;;;9.60;;
1569;SDS011;778;50.120;8.698;2023-02-07T09:46:05;11.33;;;10.03;;
1569;SDS011;778;50.120;8.698;2023-02-07T09:48:42;14.00;;;11.03;;
1569;SDS011;778;50.120;8.698;2023-02-07T09:51:16;14.83;;;11.23;;
1569;SDS011;778;50.120;8.698;2023-02-07T09:53:49;12.60;;;10.00;;
1569;SDS011;778;50.120;8.698;2023-02-07T09:56:23;12.70;;;10.43;;
1569;SDS011;778;50.120;8.698;2023-02-07T09:58:56;12.77;;;10.03;;
1569;SDS011;778;50.120;8.698;2023-02-07T10:01:34;12.73;;;10.07;;
1569;SDS011;778;50.120;8.698;2023-02-07T10:04:13;12.07;;;10.43;;
1569;SDS011;778;50.120;8.698;2023-02-07T10:06:56;12.60;;;11.00;;
1569;SDS011;778;50.120;8.698;2023-02-07T10:09:27;12.03;;;9.23;;
1569;SDS011;778;50.120;8.698;2023-02-07T10:11:59;12.37;;;10.83;;
1569;SDS011;778;50.120;8.698;2023-02-07T10:14:41;17.93;;;13.13;;
1569;SDS011;778;50.120;8.698;2023-02-07T10:17:35;14.20;;;10.20;;
1569;SDS011;778;50.120;8.698;2023-02-07T10:20:28;13.00;;;10.10;;
1569;SDS011;778;50.120;8.698;2023-02-07T10:23:09;14.53;;;10.23;;
1569;SDS011;778;50.120;8.698;2023-02-07T10:25:56;13.00;;;9.80;;
1569;SDS011;778;50.120;8.698;2023-02-07T10:28:43;12.60;;;9.80;;
1569;SDS011;778;50.120;8.698;2023-02-07T10:31:29;13.00;;;10.20;;
1569;SDS011;778;50.120;8.698;2023-02-07T10:34:03;12.03;;;10.43;;
1569;SDS011;778;50.120;8.698;2023-02-07T10:36:42;14.10;;;10.10;;
1569;SDS011;778;50.120;8.698;2023-02-07T10:39:16;13.00;;;10.60;;
1569;SDS011;778;50.120;8.698;2023-02-07T10:41:58;11.90;;;10.60;;
1569;SDS011;778;50.120;8.698;2023-02-07T10:44:27;13.83;;;10.77;;
1569;SDS011;778;50.120;8.698;2023-02-07T10:46:57;12.70;;;9.60;;
1569;SDS011;778;50.120;8.698;2023-02-07T10:49:30;11.73;;;10.13;;
1569;SDS011;778;50.120;8.698;2023-02-07T10:52:01;11.23;;;10.10;;
1569;SDS011;778;50.120;8.698;2023-02-07T10:54:53;12.63;;;9.60;;
1569;SDS011;778;50.120;8.698;2023-02-07T10:57:24;14.10;;;9.90;;
1569;SDS011;778;50.120;8.698;2023-02-07T10:59:58;10.27;;;9.27;;
1569;SDS011;778;50.120;8.698;2023-02-07T11:02:34;11.70;;;10.50;;
1569;SDS011;778;50.120;8.698;2023-02-07T11:05:27;14.20;;;11.10;;
1569;SDS011;778;50.120;8.698;2023-02-07T11:08:03;14.07;;;10.20;;
1569;SDS011;778;50.120;8.698;2023-02-07T11:10:42;11.17;;;9.47;;
1569;SDS011;778;50.120;8.698;2023-02-07T11:13:13;13.00;;;10.07;;
1569;SDS011;778;50.120;8.698;2023-02-07T11:15:46;13.20;;;9.83;;
1569;SDS011;778;50.120;8.698;2023-02-07T11:18:24;14.23;;;10.13;;
1569;SDS011;778;50.120;8.698;2023-02-07T11:21:06;13.47;;;10.07;;
1569;SDS011;778;50.120;8.698;2023-02-07T11:23:49;15.23;;;10.83;;
1569;SDS011;778;50.120;8.698;2023-02-07T11:26:21;13.90;;;10.83;;
1569;SDS011;778;50.120;8.698;2023-02-07T11:28:51;13.40;;;10.60;;
1569;SDS011;778;50.120;8.698;2023-02-07T11:31:23;12.87;;;10.70;;
1569;SDS011;778;50.120;8.698;2023-02-07T11:34:05;14.73;;;11.27;;
1569;SDS011;778;50.120;8.698;2023-02-07T11:36:37;12.53;;;9.10;;
1569;SDS011;778;50.120;8.698;2023-02-07T11:39:11;11.83;;;10.17;;
1569;SDS011;778;50.120;8.698;2023-02-07T11:41:51;13.63;;;9.80;;
1569;SDS011;778;50.120;8.698;2023-02-07T11:44:22;13.73;;;11.47;;
1569;SDS011;778;50.120;8.698;2023-02-07T11:46:55;12.40;;;10.73;;
1569;SDS011;778;50.120;8.698;2023-02-07T11:49:32;11.17;;;9.83;;
1569;SDS011;778;50.120;8.698;2023-02-07T11:52:10;12.40;;;10.83;;
1569;SDS011;778;50.120;8.698;2023-02-07T11:54:40;17.90;;;11.90;;
1569;SDS011;778;50.120;8.698;2023-02-07T11:57:15;13.23;;;11.23;;
1569;SDS011;778;50.120;8.698;2023-02-07T11:59:47;13.30;;;11.87;;
1569;SDS011;778;50.120;8.698;2023-02-07T12:02:27;12.90;;;11.07;;
1569;SDS011;778;50.120;8.698;2023-02-07T12:05:08;12.00;;;10.20;;
1569;SDS011;778;50.120;8.698;2023-02-07T12:07:48;13.57;;;10.40;;
1569;SDS011;778;50.120;8.698;2023-02-07T12:10:20;12.13;;;10.10;;
1569;SDS011;778;50.120;8.698;2023-02-07T12:12:52;13.93;;;10.33;;
1569;SDS011;778;50.120;8.698;2023-02-07T12:15:27;11.03;;;9.77;;
1569;SDS011;778;50.120;8.698;2023-02-07T12:18:01;15.53;;;10.70;;
1569;SDS011;778;50.120;8.698;2023-02-07T12:20:35;15.13;;;10.87;;
1569;SDS011;778;50.120;8.698;2023-02-07T12:23:11;11.13;;;9.67;;
1569;SDS011;778;50.120;8.698;2023-02-07T12:26:12;13.53;;;11.77;;
1569;SDS011;778;50.120;8.698;2023-02-07T12:28:48;13.70;;;11.77;;
1569;SDS011;778;50.120;8.698;2023-02-07T12:31:40;10.63;;;9.47;;
1569;SDS011;778;50.120;8.698;2023-02-07T12:34:19;13.73;;;10.20;;
1569;SDS011;778;50.120;8.698;2023-02-07T12:36:57;12.60;;;9.83;;
1569;SDS011;778;50.120;8.698;2023-02-07T12:39:35;11.83;;;9.70;;
1569;SDS011;778;50.120;8.698;2023-02-07T12:42:23;11.30;;;8.60;;
1569;SDS011;778;50.120;8.698;2023-02-07T12:44:59;13.60;;;10.30;;
1569;SDS011;778;50.120;8.698;2023-02-07T12:47:36;11.40;;;9.20;;
1569;SDS011;778;50.120;8.698;2023-02-07T12:50:16;14.27;;;9.50;;
1569;SDS011;778;50.120;8.698;2023-02-07T12:53:07;11.90;;;10.70;;
1569;SDS011;778;50.120;8.698;2023-02-07T12:55:52;12.17;;;9.37;;
1569;SDS011;778;50.120;8.698;2023-02-07T12:58:38;14.33;;;9.97;;
1569;SDS011;778;50.120;8.698;2023-02-07T13:01:19;13.40;;;9.33;;
1569;SDS011;778;50.120;8.698;2023-02-07T13:04:03;10.47;;;9.37;;
1569;SDS011;778;50.120;8.698;2023-02-07T13:10:13;11.33;;;9.83;;
1569;SDS011;778;50.120;8.698;2023-02-07T13:12:52;12.77;;;9.23;;
1569;SDS011;778;50.120;8.698;2023-02-07T13:15:29;10.83;;;8.87;;
1569;SDS011;778;50.120;8.698;2023-02-07T13:18:05;10.80;;;8.20;;
1569;SDS011;778;50.120;8.698;2023-02-07T13:20:52;9.97;;;8.27;;
1569;SDS011;778;50.120;8.698;2023-02-07T13:23:30;10.53;;;8.60;;
1569;SDS011;778;50.120;8.698;2023-02-07T13:26:04;14.40;;;10.77;;
1569;SDS011;778;50.120;8.698;2023-02-07T13:28:39;13.97;;;8.90;;
1569;SDS011;778;50.120;8.698;2023-02-07T13:31:12;13.37;;;10.07;;
1569;SDS011;778;50.120;8.698;2023-02-07T13:33:46;10.40;;;8.93;;
1569;SDS011;778;50.120;8.698;2023-02-07T13:36:21;10.27;;;7.80;;
1569;SDS011;778;50.120;8.698;2023-02-07T13:39:06;9.00;;;7.73;;
1569;SDS011;778;50.120;8.698;2023-02-07T13:41:51;11.10;;;8.77;;
1569;SDS011;778;50.120;8.698;2023-02-07T13:44:32;10.20;;;7.80;;
1569;SDS011;778;50.120;8.698;2023-02-07T13:47:15;12.30;;;9.23;;
1569;SDS011;778;50.120;8.698;2023-02-07T13:50:10;13.37;;;8.17;;
1569;SDS011;778;50.120;8.698;2023-02-07T13:52:54;11.23;;;8.57;;
1569;SDS011;778;50.120;8.698;2023-02-07T13:55:31;9.83;;;7.90;;
1569;SDS011;778;50.120;8.698;2023-02-07T13:58:03;9.27;;;7.97;;
1569;SDS011;778;50.120;8.698;2023-02-07T14:01:35;8.97;;;7.97;;
1569;SDS011;778;50.120;8.698;2023-02-07T14:04:07;8.87;;;7.30;;
1569;SDS011;778;50.120;8.698;2023-02-07T14:06:37;9.83;;;8.33;;
1569;SDS011;778;50.120;8.698;2023-02-07T14:09:09;9.03;;;7.97;;
1569;SDS011;778;50.120;8.698;2023-02-07T14:11:45;8.77;;;7.20;;
1569;SDS011;778;50.120;8.698;2023-02-07T14:14:24;10.27;;;7.90;;
1569;SDS011;778;50.120;8.698;2023-02-07T14:16:56;8.87;;;7.97;;
1569;SDS011;778;50.120;8.698;2023-02-07T14:22:28;9.50;;;7.73;;
1569;SDS011;778;50.120;8.698;2023-02-07T14:25:18;11.80;;;8.67;;
1569;SDS011;778;50.120;8.698;2023-02-07T14:30:56;10.70;;;8.60;;
1569;SDS011;778;50.120;8.698;2023-02-07T14:33:41;9.40;;;8.00;;
1569;SDS011;778;50.120;8.698;2023-02-07T14:36:39;14.43;;;8.17;;
1569;SDS011;778;50.120;8.698;2023-02-07T14:39:28;11.53;;;7.93;;
1569;SDS011;778;50.120;8.698;2023-02-07T14:42:09;8.53;;;7.63;;
1569;SDS011;778;50.120;8.698;2023-02-07T14:44:42;8.60;;;7.43;;
1569;SDS011;778;50.120;8.698;2023-02-07T14:47:17;11.43;;;8.10;;
1569;SDS011;778;50.120;8.698;2023-02-07T14:49:52;14.30;;;7.50;;
1569;SDS011;778;50.120;8.698;2023-02-07T14:52:25;9.53;;;7.40;;
1569;SDS011;778;50.120;8.698;2023-02-07T14:54:57;10.53;;;7.37;;
1569;SDS011;778;50.120;8.698;2023-02-07T14:57:32;8.77;;;7.40;;
1569;SDS011;778;50.120;8.698;2023-02-07T15:00:14;9.37;;;7.27;;
1569;SDS011;778;50.120;8.698;2023-02-07T15:02:54;293.90;;;39.93;;
1569;SDS011;778;50.120;8.698;2023-02-07T15:05:26;54.87;;;15.37;;
1569;SDS011;778;50.120;8.698;2023-02-07T15:08:06;15.13;;;9.23;;
1569;SDS011;778;50.120;8.698;2023-02-07T15:10:43;13.13;;;8.60;;
1569;SDS011;778;50.120;8.698;2023-02-07T15:13:22;11.40;;;8.60;;
1569;SDS011;778;50.120;8.698;2023-02-07T15:15:57;11.53;;;8.80;;
1569;SDS011;778;50.120;8.698;2023-02-07T15:18:32;20.37;;;9.10;;
1569;SDS011;778;50.120;8.698;2023-02-07T15:21:05;23.10;;;10.47;;
1569;SDS011;778;50.120;8.698;2023-02-07T15:23:42;11.77;;;8.83;;
1569;SDS011;778;50.120;8.698;2023-02-07T15:26:16;12.10;;;9.63;;
1569;SDS011;778;50.120;8.698;2023-02-07T15:28:46;11.20;;;8.30;;
1569;SDS011;778;50.120;8.698;2023-02-07T15:31:23;13.10;;;7.90;;
1569;SDS011;778;50.120;8.698;2023-02-07T15:33:53;10.77;;;8.50;;
1569;SDS011;778;50.120;8.698;2023-02-07T15:36:33;9.73;;;8.47;;
1569;SDS011;778;50.120;8.698;2023-02-07T15:39:04;12.10;;;8.10;;
1569;SDS011;778;50.120;8.698;2023-02-07T15:41:42;13.13;;;9.23;;
1569;SDS011;778;50.120;8.698;2023-02-07T15:44:18;11.43;;;9.83;;
1569;SDS011;778;50.120;8.698;2023-02-07T15:46:49;13.40;;;10.47;;
1569;SDS011;778;50.120;8.698;2023-02-07T15:49:23;13.73;;;9.87;;
1569;SDS011;778;50.120;8.698;2023-02-07T15:51:57;13.00;;;8.80;;
1569;SDS011;778;50.120;8.698;2023-02-07T15:54:33;14.50;;;9.03;;
1569;SDS011;778;50.120;8.698;2023-02-07T15:57:08;13.47;;;9.37;;
1569;SDS011;778;50.120;8.698;2023-02-07T15:59:40;14.93;;;9.83;;
1569;SDS011;778;50.120;8.698;2023-02-07T16:02:13;17.83;;;9.47;;
1569;SDS011;778;50.120;8.698;2023-02-07T16:04:51;12.80;;;9.43;;
1569;SDS011;778;50.120;8.698;2023-02-07T16:07:21;13.10;;;8.37;;
1569;SDS011;778;50.120;8.698;2023-02-07T16:09:50;12.03;;;8.60;;
1569;SDS011;778;50.120;8.698;2023-02-07T16:12:29;13.00;;;8.20;;